sensor_id;sensor_type;location;lat;lon;timestamp;P1;durP1;ratioP1;P2;durP2;ratioP2
22166;SDS011;11249;52.468;13.776;2023-06-10T00:01:40;10.52;;;6.32;;
22166;SDS011;11249;52.468;13.776;2023-06-10T00:04:07;10.50;;;5.72;;
22166;SDS011;11249;52.468;13.776;2023-06-10T00:06:34;9.40;;;5.40;;
22166;SDS011;11249;52.468;13.776;2023-06-10T00:09:04;13.73;;;5.75;;
22166;SDS011;11249;52.468;13.776;2023-06-10T00:11:32;12.65;;;6.25;;
22166;SDS011;11249;52.468;13.776;2023-06-10T00:13:59;11.40;;;5.82;;
22166;SDS011;11249;52.468;13.776;2023-06-10T00:16:26;10.38;;;5.50;;
22166;SDS011;11249;52.468;13.776;2023-06-10T00:18:53;12.18;;;5.45;;
22166;SDS011;11249;52.468;13.776;2023-06-10T00:21:27;12.10;;;6.13;;
22166;SDS011;11249;52.468;13.776;2023-06-10T00:23:54;11.65;;;6.53;;
22166;SDS011;11249;52.468;13.776;2023-06-10T00:26:22;13.80;;;5.97;;
22166;SDS011;11249;52.468;13.776;2023-06-10T00:28:49;10.82;;;6.05;;
22166;SDS011;11249;52.468;13.776;2023-06-10T00:31:16;11.85;;;5.53;;
22166;SDS011;11249;52.468;13.776;2023-06-10T00:33:43;12.63;;;6.53;;
22166;SDS011;11249;52.468;13.776;2023-06-10T00:36:10;10.05;;;5.50;;
22166;SDS011;11249;52.468;13.776;2023-06-10T00:38:37;14.13;;;5.95;;
22166;SDS011;11249;52.468;13.776;2023-06-10T00:41:03;15.52;;;6.28;;
22166;SDS011;11249;52.468;13.776;2023-06-10T00:43:30;10.20;;;5.82;;
22166;SDS011;11249;52.468;13.776;2023-06-10T00:45:57;12.90;;;6.32;;
22166;SDS011;11249;52.468;13.776;2023-06-10T00:48:24;14.25;;;7.43;;
22166;SDS011;11249;52.468;13.776;2023-06-10T00:50:51;11.27;;;6.40;;
22166;SDS011;11249;52.468;13.776;2023-06-10T00:53:18;13.27;;;6.00;;
22166;SDS011;11249;52.468;13.776;2023-06-10T00:55:47;10.43;;;6.00;;
22166;SDS011;11249;52.468;13.776;2023-06-10T00:58:14;11.70;;;6.25;;
22166;SDS011;11249;52.468;13.776;2023-06-10T01:00:41;11.85;;;6.63;;
22166;SDS011;11249;52.468;13.776;2023-06-10T01:03:08;10.25;;;5.68;;
22166;SDS011;11249;52.468;13.776;2023-06-10T01:05:35;10.82;;;5.85;;
22166;SDS011;11249;52.468;13.776;2023-06-10T01:08:03;17.00;;;6.20;;
22166;SDS011;11249;52.468;13.776;2023-06-10T01:10:44;10.98;;;5.95;;
22166;SDS011;11249;52.468;13.776;2023-06-10T01:13:16;13.48;;;6.00;;
22166;SDS011;11249;52.468;13.776;2023-06-10T01:15:44;12.70;;;6.00;;
22166;SDS011;11249;52.468;13.776;2023-06-10T01:18:11;10.23;;;5.75;;
22166;SDS011;11249;52.468;13.776;2023-06-10T01:20:42;14.93;;;6.05;;
22166;SDS011;11249;52.468;13.776;2023-06-10T01:23:10;12.65;;;6.82;;
22166;SDS011;11249;52.468;13.776;2023-06-10T01:25:38;11.52;;;6.35;;
22166;SDS011;11249;52.468;13.776;2023-06-10T01:28:19;16.40;;;6.20;;
22166;SDS011;11249;52.468;13.776;2023-06-10T01:33:27;11.75;;;5.97;;
22166;SDS011;11249;52.468;13.776;2023-06-10T01:35:58;10.68;;;6.25;;
22166;SDS011;11249;52.468;13.776;2023-06-10T01:40:56;15.65;;;6.15;;
22166;SDS011;11249;52.468;13.776;2023-06-10T01:43:24;11.35;;;5.82;;
22166;SDS011;11249;52.468;13.776;2023-06-10T01:45:51;13.25;;;6.30;;
22166;SDS011;11249;52.468;13.776;2023-06-10T01:48:17;16.00;;;6.05;;
22166;SDS011;11249;52.468;13.776;2023-06-10T01:50:44;11.77;;;5.55;;
22166;SDS011;11249;52.468;13.776;2023-06-10T01:53:12;13.02;;;5.63;;
22166;SDS011;11249;52.468;13.776;2023-06-10T01:55:39;12.77;;;6.45;;
22166;SDS011;11249;52.468;13.776;2023-06-10T01:58:05;12.70;;;5.70;;
22166;SDS011;11249;52.468;13.776;2023-06-10T02:00:32;13.48;;;5.97;;
22166;SDS011;11249;52.468;13.776;2023-06-10T02:02:59;14.90;;;6.40;;
22166;SDS011;11249;52.468;13.776;2023-06-10T02:05:26;19.63;;;7.22;;
22166;SDS011;11249;52.468;13.776;2023-06-10T02:07:53;11.98;;;6.38;;
22166;SDS011;11249;52.468;13.776;2023-06-10T02:10:20;13.52;;;6.43;;
22166;SDS011;11249;52.468;13.776;2023-06-10T02:12:47;14.38;;;6.50;;
22166;SDS011;11249;52.468;13.776;2023-06-10T02:15:13;13.70;;;6.78;;
22166;SDS011;11249;52.468;13.776;2023-06-10T02:17:40;13.25;;;6.15;;
22166;SDS011;11249;52.468;13.776;2023-06-10T02:20:07;13.20;;;7.32;;
22166;SDS011;11249;52.468;13.776;2023-06-10T02:22:37;10.73;;;5.82;;
22166;SDS011;11249;52.468;13.776;2023-06-10T02:25:04;14.38;;;5.97;;
22166;SDS011;11249;52.468;13.776;2023-06-10T02:27:32;12.38;;;6.05;;
22166;SDS011;11249;52.468;13.776;2023-06-10T02:29:58;11.02;;;6.15;;
22166;SDS011;11249;52.468;13.776;2023-06-10T02:32:25;15.35;;;6.55;;
22166;SDS011;11249;52.468;13.776;2023-06-10T02:34:53;14.23;;;6.35;;
22166;SDS011;11249;52.468;13.776;2023-06-10T02:37:19;13.20;;;6.68;;
22166;SDS011;11249;52.468;13.776;2023-06-10T02:39:46;15.95;;;6.50;;
22166;SDS011;11249;52.468;13.776;2023-06-10T02:42:13;12.65;;;6.97;;
22166;SDS011;11249;52.468;13.776;2023-06-10T02:44:40;12.82;;;7.22;;
22166;SDS011;11249;52.468;13.776;2023-06-10T02:47:07;15.73;;;6.63;;
22166;SDS011;11249;52.468;13.776;2023-06-10T02:49:33;13.50;;;6.38;;
22166;SDS011;11249;52.468;13.776;2023-06-10T02:52:00;14.82;;;7.68;;
22166;SDS011;11249;52.468;13.776;2023-06-10T02:54:27;13.02;;;7.50;;
22166;SDS011;11249;52.468;13.776;2023-06-10T02:56:54;13.10;;;6.82;;
22166;SDS011;11249;52.468;13.776;2023-06-10T02:59:22;15.25;;;7.32;;
22166;SDS011;11249;52.468;13.776;2023-06-10T03:01:49;14.77;;;6.70;;
22166;SDS011;11249;52.468;13.776;2023-06-10T03:04:15;11.85;;;7.22;;
22166;SDS011;11249;52.468;13.776;2023-06-10T03:06:42;12.85;;;6.88;;
22166;SDS011;11249;52.468;13.776;2023-06-10T03:09:09;15.52;;;7.13;;
22166;SDS011;11249;52.468;13.776;2023-06-10T03:11:36;16.30;;;7.55;;
22166;SDS011;11249;52.468;13.776;2023-06-10T03:14:03;16.75;;;7.22;;
22166;SDS011;11249;52.468;13.776;2023-06-10T03:16:29;16.52;;;7.18;;
22166;SDS011;11249;52.468;13.776;2023-06-10T03:18:57;11.90;;;6.82;;
22166;SDS011;11249;52.468;13.776;2023-06-10T03:21:24;14.27;;;7.28;;
22166;SDS011;11249;52.468;13.776;2023-06-10T03:23:51;12.73;;;7.30;;
22166;SDS011;11249;52.468;13.776;2023-06-10T03:26:18;20.33;;;8.10;;
22166;SDS011;11249;52.468;13.776;2023-06-10T03:28:47;10.70;;;6.80;;
22166;SDS011;11249;52.468;13.776;2023-06-10T03:31:15;16.40;;;7.85;;
22166;SDS011;11249;52.468;13.776;2023-06-10T03:33:43;15.07;;;7.60;;
22166;SDS011;11249;52.468;13.776;2023-06-10T03:36:10;15.10;;;8.13;;
22166;SDS011;11249;52.468;13.776;2023-06-10T03:38:36;15.68;;;7.05;;
22166;SDS011;11249;52.468;13.776;2023-06-10T03:41:03;11.75;;;7.28;;
22166;SDS011;11249;52.468;13.776;2023-06-10T03:43:30;13.90;;;7.60;;
22166;SDS011;11249;52.468;13.776;2023-06-10T03:45:57;12.88;;;7.18;;
22166;SDS011;11249;52.468;13.776;2023-06-10T03:48:24;14.80;;;7.68;;
22166;SDS011;11249;52.468;13.776;2023-06-10T03:50:51;13.95;;;6.80;;
22166;SDS011;11249;52.468;13.776;2023-06-10T03:53:18;17.40;;;7.28;;
22166;SDS011;11249;52.468;13.776;2023-06-10T03:55:45;18.45;;;8.82;;
22166;SDS011;11249;52.468;13.776;2023-06-10T03:58:12;17.23;;;8.48;;
22166;SDS011;11249;52.468;13.776;2023-06-10T04:00:41;11.38;;;6.78;;
22166;SDS011;11249;52.468;13.776;2023-06-10T04:03:08;11.85;;;6.97;;
22166;SDS011;11249;52.468;13.776;2023-06-10T04:05:41;16.90;;;7.95;;
22166;SDS011;11249;52.468;13.776;2023-06-10T04:08:08;14.57;;;8.05;;
22166;SDS011;11249;52.468;13.776;2023-06-10T04:10:35;16.50;;;8.07;;
22166;SDS011;11249;52.468;13.776;2023-06-10T04:13:02;18.20;;;7.57;;
22166;SDS011;11249;52.468;13.776;2023-06-10T04:15:29;14.63;;;7.45;;
22166;SDS011;11249;52.468;13.776;2023-06-10T04:17:59;11.45;;;7.30;;
22166;SDS011;11249;52.468;13.776;2023-06-10T04:20:27;12.27;;;7.20;;
22166;SDS011;11249;52.468;13.776;2023-06-10T04:22:54;10.32;;;7.43;;
22166;SDS011;11249;52.468;13.776;2023-06-10T04:25:21;13.23;;;7.25;;
22166;SDS011;11249;52.468;13.776;2023-06-10T04:27:48;14.30;;;8.25;;
22166;SDS011;11249;52.468;13.776;2023-06-10T04:30:15;13.43;;;7.72;;
22166;SDS011;11249;52.468;13.776;2023-06-10T04:32:42;14.38;;;7.55;;
22166;SDS011;11249;52.468;13.776;2023-06-10T04:35:11;11.07;;;7.38;;
22166;SDS011;11249;52.468;13.776;2023-06-10T04:37:38;17.10;;;8.82;;
22166;SDS011;11249;52.468;13.776;2023-06-10T04:40:06;14.10;;;8.93;;
22166;SDS011;11249;52.468;13.776;2023-06-10T04:42:34;14.25;;;8.15;;
22166;SDS011;11249;52.468;13.776;2023-06-10T04:45:00;16.50;;;7.97;;
22166;SDS011;11249;52.468;13.776;2023-06-10T04:47:28;10.95;;;8.30;;
22166;SDS011;11249;52.468;13.776;2023-06-10T04:49:59;14.50;;;8.10;;
22166;SDS011;11249;52.468;13.776;2023-06-10T04:52:27;16.30;;;7.95;;
22166;SDS011;11249;52.468;13.776;2023-06-10T04:54:54;13.68;;;7.72;;
22166;SDS011;11249;52.468;13.776;2023-06-10T04:57:21;15.18;;;8.25;;
22166;SDS011;11249;52.468;13.776;2023-06-10T04:59:48;14.10;;;7.80;;
22166;SDS011;11249;52.468;13.776;2023-06-10T05:02:15;12.50;;;7.60;;
22166;SDS011;11249;52.468;13.776;2023-06-10T05:04:41;12.98;;;7.70;;
22166;SDS011;11249;52.468;13.776;2023-06-10T05:07:08;10.80;;;7.20;;
22166;SDS011;11249;52.468;13.776;2023-06-10T05:09:35;15.18;;;8.10;;
22166;SDS011;11249;52.468;13.776;2023-06-10T05:12:04;11.73;;;7.45;;
22166;SDS011;11249;52.468;13.776;2023-06-10T05:14:31;12.25;;;8.43;;
22166;SDS011;11249;52.468;13.776;2023-06-10T05:16:58;12.80;;;7.95;;
22166;SDS011;11249;52.468;13.776;2023-06-10T05:19:25;17.48;;;7.85;;
22166;SDS011;11249;52.468;13.776;2023-06-10T05:21:51;12.35;;;7.55;;
22166;SDS011;11249;52.468;13.776;2023-06-10T05:24:18;11.68;;;7.82;;
22166;SDS011;11249;52.468;13.776;2023-06-10T05:26:45;14.77;;;7.50;;
22166;SDS011;11249;52.468;13.776;2023-06-10T05:29:13;13.30;;;7.80;;
22166;SDS011;11249;52.468;13.776;2023-06-10T05:31:41;12.65;;;7.97;;
22166;SDS011;11249;52.468;13.776;2023-06-10T05:34:08;13.13;;;8.07;;
22166;SDS011;11249;52.468;13.776;2023-06-10T05:36:35;14.25;;;7.88;;
22166;SDS011;11249;52.468;13.776;2023-06-10T05:39:02;18.27;;;7.78;;
22166;SDS011;11249;52.468;13.776;2023-06-10T05:41:29;13.10;;;7.60;;
22166;SDS011;11249;52.468;13.776;2023-06-10T05:43:56;15.70;;;7.95;;
22166;SDS011;11249;52.468;13.776;2023-06-10T05:46:23;15.07;;;8.18;;
22166;SDS011;11249;52.468;13.776;2023-06-10T05:48:50;15.10;;;8.10;;
22166;SDS011;11249;52.468;13.776;2023-06-10T05:51:17;12.25;;;8.23;;
22166;SDS011;11249;52.468;13.776;2023-06-10T05:53:43;15.60;;;8.05;;
22166;SDS011;11249;52.468;13.776;2023-06-10T05:56:13;18.17;;;8.52;;
22166;SDS011;11249;52.468;13.776;2023-06-10T05:58:40;14.60;;;8.75;;
22166;SDS011;11249;52.468;13.776;2023-06-10T06:01:07;15.88;;;8.57;;
22166;SDS011;11249;52.468;13.776;2023-06-10T06:03:34;12.73;;;7.63;;
22166;SDS011;11249;52.468;13.776;2023-06-10T06:06:02;14.43;;;8.02;;
22166;SDS011;11249;52.468;13.776;2023-06-10T06:08:29;14.63;;;8.52;;
22166;SDS011;11249;52.468;13.776;2023-06-10T06:10:56;14.38;;;7.65;;
22166;SDS011;11249;52.468;13.776;2023-06-10T06:13:23;11.77;;;8.18;;
22166;SDS011;11249;52.468;13.776;2023-06-10T06:15:50;13.38;;;7.35;;
22166;SDS011;11249;52.468;13.776;2023-06-10T06:18:17;12.95;;;8.63;;
22166;SDS011;11249;52.468;13.776;2023-06-10T06:20:44;13.25;;;7.72;;
22166;SDS011;11249;52.468;13.776;2023-06-10T06:23:11;12.35;;;7.60;;
22166;SDS011;11249;52.468;13.776;2023-06-10T06:25:38;12.18;;;7.47;;
22166;SDS011;11249;52.468;13.776;2023-06-10T06:28:06;8.70;;;7.20;;
22166;SDS011;11249;52.468;13.776;2023-06-10T06:30:33;10.23;;;7.97;;
22166;SDS011;11249;52.468;13.776;2023-06-10T06:33:00;13.23;;;7.32;;
22166;SDS011;11249;52.468;13.776;2023-06-10T06:35:30;11.52;;;8.23;;
22166;SDS011;11249;52.468;13.776;2023-06-10T06:40:25;12.50;;;7.28;;
22166;SDS011;11249;52.468;13.776;2023-06-10T06:42:52;14.57;;;8.50;;
22166;SDS011;11249;52.468;13.776;2023-06-10T06:45:18;13.23;;;7.30;;
22166;SDS011;11249;52.468;13.776;2023-06-10T06:47:45;11.23;;;7.63;;
22166;SDS011;11249;52.468;13.776;2023-06-10T06:50:12;11.40;;;8.07;;
22166;SDS011;11249;52.468;13.776;2023-06-10T06:52:39;11.45;;;7.32;;
22166;SDS011;11249;52.468;13.776;2023-06-10T06:55:06;14.00;;;8.13;;
22166;SDS011;11249;52.468;13.776;2023-06-10T06:57:34;12.15;;;8.52;;
22166;SDS011;11249;52.468;13.776;2023-06-10T07:00:00;15.65;;;8.77;;
22166;SDS011;11249;52.468;13.776;2023-06-10T07:02:27;18.90;;;8.55;;
22166;SDS011;11249;52.468;13.776;2023-06-10T07:04:54;14.38;;;7.38;;
22166;SDS011;11249;52.468;13.776;2023-06-10T07:07:22;12.23;;;7.25;;
22166;SDS011;11249;52.468;13.776;2023-06-10T07:09:48;10.73;;;7.90;;
22166;SDS011;11249;52.468;13.776;2023-06-10T07:12:15;11.95;;;8.40;;
22166;SDS011;11249;52.468;13.776;2023-06-10T07:14:44;10.18;;;7.65;;
22166;SDS011;11249;52.468;13.776;2023-06-10T07:17:10;11.63;;;7.47;;
22166;SDS011;11249;52.468;13.776;2023-06-10T07:19:37;12.75;;;7.93;;
22166;SDS011;11249;52.468;13.776;2023-06-10T07:22:04;11.13;;;7.88;;
22166;SDS011;11249;52.468;13.776;2023-06-10T07:24:31;15.43;;;8.30;;
22166;SDS011;11249;52.468;13.776;2023-06-10T07:26:57;13.60;;;8.40;;
22166;SDS011;11249;52.468;13.776;2023-06-10T07:29:24;11.27;;;7.97;;
22166;SDS011;11249;52.468;13.776;2023-06-10T07:31:51;13.27;;;8.35;;
22166;SDS011;11249;52.468;13.776;2023-06-10T07:34:19;13.80;;;8.30;;
22166;SDS011;11249;52.468;13.776;2023-06-10T07:36:46;14.68;;;8.68;;
22166;SDS011;11249;52.468;13.776;2023-06-10T07:39:12;17.75;;;9.32;;
22166;SDS011;11249;52.468;13.776;2023-06-10T07:41:39;9.02;;;7.85;;
22166;SDS011;11249;52.468;13.776;2023-06-10T07:44:06;12.68;;;8.40;;
22166;SDS011;11249;52.468;13.776;2023-06-10T07:46:33;15.10;;;8.30;;
22166;SDS011;11249;52.468;13.776;2023-06-10T07:48:59;13.15;;;8.18;;
22166;SDS011;11249;52.468;13.776;2023-06-10T07:51:26;11.65;;;7.60;;
22166;SDS011;11249;52.468;13.776;2023-06-10T07:53:53;12.30;;;7.68;;
22166;SDS011;11249;52.468;13.776;2023-06-10T07:56:19;14.27;;;8.60;;
22166;SDS011;11249;52.468;13.776;2023-06-10T07:58:47;11.40;;;8.05;;
22166;SDS011;11249;52.468;13.776;2023-06-10T08:01:14;15.68;;;8.48;;
22166;SDS011;11249;52.468;13.776;2023-06-10T08:03:42;10.30;;;7.72;;
22166;SDS011;11249;52.468;13.776;2023-06-10T08:06:09;10.05;;;8.70;;
22166;SDS011;11249;52.468;13.776;2023-06-10T08:08:37;10.63;;;8.25;;
22166;SDS011;11249;52.468;13.776;2023-06-10T08:11:10;17.40;;;8.55;;
22166;SDS011;11249;52.468;13.776;2023-06-10T08:13:37;10.30;;;8.15;;
22166;SDS011;11249;52.468;13.776;2023-06-10T08:16:04;15.60;;;8.90;;
22166;SDS011;11249;52.468;13.776;2023-06-10T08:18:31;15.48;;;8.80;;
22166;SDS011;11249;52.468;13.776;2023-06-10T08:20:58;14.60;;;8.35;;
22166;SDS011;11249;52.468;13.776;2023-06-10T08:23:24;12.65;;;8.75;;
22166;SDS011;11249;52.468;13.776;2023-06-10T08:25:51;12.32;;;8.88;;
22166;SDS011;11249;52.468;13.776;2023-06-10T08:28:18;14.98;;;8.45;;
22166;SDS011;11249;52.468;13.776;2023-06-10T08:30:45;10.25;;;7.82;;
22166;SDS011;11249;52.468;13.776;2023-06-10T08:33:11;13.93;;;8.90;;
22166;SDS011;11249;52.468;13.776;2023-06-10T08:35:38;11.95;;;9.45;;
22166;SDS011;11249;52.468;13.776;2023-06-10T08:38:05;14.10;;;9.05;;
22166;SDS011;11249;52.468;13.776;2023-06-10T08:40:32;16.65;;;8.88;;
22166;SDS011;11249;52.468;13.776;2023-06-10T08:43:06;10.85;;;8.23;;
22166;SDS011;11249;52.468;13.776;2023-06-10T08:45:35;11.23;;;8.18;;
22166;SDS011;11249;52.468;13.776;2023-06-10T08:48:05;10.00;;;8.00;;
22166;SDS011;11249;52.468;13.776;2023-06-10T08:50:34;12.13;;;8.93;;
22166;SDS011;11249;52.468;13.776;2023-06-10T08:53:04;12.30;;;7.88;;
22166;SDS011;11249;52.468;13.776;2023-06-10T08:55:33;9.80;;;7.88;;
22166;SDS011;11249;52.468;13.776;2023-06-10T08:58:02;8.65;;;7.75;;
22166;SDS011;11249;52.468;13.776;2023-06-10T09:00:30;14.00;;;8.18;;
22166;SDS011;11249;52.468;13.776;2023-06-10T09:02:58;10.05;;;7.50;;
22166;SDS011;11249;52.468;13.776;2023-06-10T09:05:31;9.73;;;7.50;;
22166;SDS011;11249;52.468;13.776;2023-06-10T09:07:59;13.10;;;8.77;;
22166;SDS011;11249;52.468;13.776;2023-06-10T09:10:27;14.90;;;8.55;;
22166;SDS011;11249;52.468;13.776;2023-06-10T09:12:54;14.82;;;8.68;;
22166;SDS011;11249;52.468;13.776;2023-06-10T09:15:21;11.57;;;7.97;;
22166;SDS011;11249;52.468;13.776;2023-06-10T09:17:47;11.07;;;7.32;;
22166;SDS011;11249;52.468;13.776;2023-06-10T09:20:14;11.05;;;7.38;;
22166;SDS011;11249;52.468;13.776;2023-06-10T09:22:42;7.63;;;6.57;;
22166;SDS011;11249;52.468;13.776;2023-06-10T09:25:12;10.73;;;7.30;;
22166;SDS011;11249;52.468;13.776;2023-06-10T09:27:49;10.00;;;7.57;;
22166;SDS011;11249;52.468;13.776;2023-06-10T09:30:30;9.40;;;6.72;;
22166;SDS011;11249;52.468;13.776;2023-06-10T09:32:59;10.02;;;7.20;;
22166;SDS011;11249;52.468;13.776;2023-06-10T09:35:27;8.43;;;7.47;;
22166;SDS011;11249;52.468;13.776;2023-06-10T09:37:58;17.00;;;7.28;;
22166;SDS011;11249;52.468;13.776;2023-06-10T09:40:26;15.85;;;6.95;;
22166;SDS011;11249;52.468;13.776;2023-06-10T09:42:55;10.00;;;6.75;;
22166;SDS011;11249;52.468;13.776;2023-06-10T09:45:23;9.23;;;7.30;;
22166;SDS011;11249;52.468;13.776;2023-06-10T09:47:56;8.77;;;6.60;;
22166;SDS011;11249;52.468;13.776;2023-06-10T09:50:22;13.70;;;6.68;;
22166;SDS011;11249;52.468;13.776;2023-06-10T09:52:50;12.63;;;6.95;;
22166;SDS011;11249;52.468;13.776;2023-06-10T09:55:17;13.30;;;6.82;;
22166;SDS011;11249;52.468;13.776;2023-06-10T09:57:44;11.52;;;6.97;;
22166;SDS011;11249;52.468;13.776;2023-06-10T10:00:15;11.10;;;6.43;;
22166;SDS011;11249;52.468;13.776;2023-06-10T10:05:17;16.35;;;6.78;;
22166;SDS011;11249;52.468;13.776;2023-06-10T10:07:45;7.13;;;6.40;;
22166;SDS011;11249;52.468;13.776;2023-06-10T10:10:13;12.93;;;6.78;;
22166;SDS011;11249;52.468;13.776;2023-06-10T10:12:41;6.80;;;5.97;;
22166;SDS011;11249;52.468;13.776;2023-06-10T10:15:09;6.88;;;5.82;;
22166;SDS011;11249;52.468;13.776;2023-06-10T10:17:38;7.13;;;6.43;;
22166;SDS011;11249;52.468;13.776;2023-06-10T10:20:08;11.30;;;6.78;;
22166;SDS011;11249;52.468;13.776;2023-06-10T10:22:39;9.40;;;6.30;;
22166;SDS011;11249;52.468;13.776;2023-06-10T10:25:10;14.10;;;6.50;;
22166;SDS011;11249;52.468;13.776;2023-06-10T10:27:48;8.85;;;6.93;;
22166;SDS011;11249;52.468;13.776;2023-06-10T10:30:17;9.15;;;6.40;;
22166;SDS011;11249;52.468;13.776;2023-06-10T10:32:52;8.98;;;6.13;;
22166;SDS011;11249;52.468;13.776;2023-06-10T10:35:24;6.20;;;5.60;;
22166;SDS011;11249;52.468;13.776;2023-06-10T10:37:52;8.52;;;5.38;;
22166;SDS011;11249;52.468;13.776;2023-06-10T10:40:23;8.50;;;5.43;;
22166;SDS011;11249;52.468;13.776;2023-06-10T10:42:51;11.05;;;6.47;;
22166;SDS011;11249;52.468;13.776;2023-06-10T10:45:18;8.60;;;5.05;;
22166;SDS011;11249;52.468;13.776;2023-06-10T10:47:51;10.20;;;5.50;;
22166;SDS011;11249;52.468;13.776;2023-06-10T10:50:20;10.95;;;5.60;;
22166;SDS011;11249;52.468;13.776;2023-06-10T10:52:58;9.93;;;5.40;;
22166;SDS011;11249;52.468;13.776;2023-06-10T10:57:58;12.00;;;5.72;;
22166;SDS011;11249;52.468;13.776;2023-06-10T11:03:15;11.20;;;5.68;;
22166;SDS011;11249;52.468;13.776;2023-06-10T11:05:44;8.90;;;5.50;;
22166;SDS011;11249;52.468;13.776;2023-06-10T11:08:45;14.05;;;6.57;;
22166;SDS011;11249;52.468;13.776;2023-06-10T11:11:20;7.53;;;5.65;;
22166;SDS011;11249;52.468;13.776;2023-06-10T11:16:28;7.68;;;5.90;;
22166;SDS011;11249;52.468;13.776;2023-06-10T11:18:56;9.73;;;6.55;;
22166;SDS011;11249;52.468;13.776;2023-06-10T11:21:23;9.05;;;5.68;;
22166;SDS011;11249;52.468;13.776;2023-06-10T11:23:57;7.57;;;6.03;;
22166;SDS011;11249;52.468;13.776;2023-06-10T11:31:26;10.32;;;6.90;;
22166;SDS011;11249;52.468;13.776;2023-06-10T11:33:58;11.30;;;7.25;;
22166;SDS011;11249;52.468;13.776;2023-06-10T11:36:29;13.25;;;7.47;;
22166;SDS011;11249;52.468;13.776;2023-06-10T11:38:57;12.18;;;7.18;;
22166;SDS011;11249;52.468;13.776;2023-06-10T11:41:25;10.77;;;6.47;;
22166;SDS011;11249;52.468;13.776;2023-06-10T11:46:23;11.15;;;6.57;;
22166;SDS011;11249;52.468;13.776;2023-06-10T11:48:53;7.30;;;6.35;;
22166;SDS011;11249;52.468;13.776;2023-06-10T11:51:21;8.95;;;6.90;;
22166;SDS011;11249;52.468;13.776;2023-06-10T11:53:52;9.88;;;6.55;;
22166;SDS011;11249;52.468;13.776;2023-06-10T11:56:19;11.63;;;6.45;;
22166;SDS011;11249;52.468;13.776;2023-06-10T11:58:51;10.57;;;6.63;;
22166;SDS011;11249;52.468;13.776;2023-06-10T12:01:24;22.45;;;8.15;;
22166;SDS011;11249;52.468;13.776;2023-06-10T12:06:40;7.57;;;5.90;;
22166;SDS011;11249;52.468;13.776;2023-06-10T12:09:19;12.38;;;7.20;;
22166;SDS011;11249;52.468;13.776;2023-06-10T12:17:16;8.65;;;7.03;;
22166;SDS011;11249;52.468;13.776;2023-06-10T12:19:42;11.18;;;6.63;;
22166;SDS011;11249;52.468;13.776;2023-06-10T12:22:09;9.30;;;7.03;;
22166;SDS011;11249;52.468;13.776;2023-06-10T12:24:56;11.98;;;6.47;;
22166;SDS011;11249;52.468;13.776;2023-06-10T12:27:27;8.43;;;6.82;;
22166;SDS011;11249;52.468;13.776;2023-06-10T12:29:56;8.50;;;6.63;;
22166;SDS011;11249;52.468;13.776;2023-06-10T12:32:35;10.00;;;4.93;;
22166;SDS011;11249;52.468;13.776;2023-06-10T12:35:04;6.72;;;4.90;;
22166;SDS011;11249;52.468;13.776;2023-06-10T12:37:32;7.27;;;4.90;;
22166;SDS011;11249;52.468;13.776;2023-06-10T12:40:08;7.25;;;4.55;;
22166;SDS011;11249;52.468;13.776;2023-06-10T12:42:35;5.72;;;5.10;;
22166;SDS011;11249;52.468;13.776;2023-06-10T12:45:03;7.60;;;4.78;;
22166;SDS011;11249;52.468;13.776;2023-06-10T12:47:34;8.55;;;5.30;;
22166;SDS011;11249;52.468;13.776;2023-06-10T12:50:04;5.53;;;5.03;;
22166;SDS011;11249;52.468;13.776;2023-06-10T12:52:31;5.88;;;4.93;;
22166;SDS011;11249;52.468;13.776;2023-06-10T12:54:58;5.75;;;4.90;;
22166;SDS011;11249;52.468;13.776;2023-06-10T12:57:27;10.25;;;4.80;;
22166;SDS011;11249;52.468;13.776;2023-06-10T12:59:54;5.68;;;5.15;;
22166;SDS011;11249;52.468;13.776;2023-06-10T13:02:23;5.70;;;4.88;;
22166;SDS011;11249;52.468;13.776;2023-06-10T13:04:50;12.05;;;5.43;;
22166;SDS011;11249;52.468;13.776;2023-06-10T13:07:17;7.78;;;4.70;;
22166;SDS011;11249;52.468;13.776;2023-06-10T13:09:44;6.28;;;4.82;;
22166;SDS011;11249;52.468;13.776;2023-06-10T13:12:15;6.43;;;5.00;;
22166;SDS011;11249;52.468;13.776;2023-06-10T13:14:52;7.03;;;4.80;;
22166;SDS011;11249;52.468;13.776;2023-06-10T13:17:20;7.13;;;4.78;;
22166;SDS011;11249;52.468;13.776;2023-06-10T13:19:47;8.00;;;4.88;;
22166;SDS011;11249;52.468;13.776;2023-06-10T13:22:16;9.70;;;5.20;;
22166;SDS011;11249;52.468;13.776;2023-06-10T13:24:42;8.15;;;5.40;;
22166;SDS011;11249;52.468;13.776;2023-06-10T13:27:10;7.10;;;5.55;;
22166;SDS011;11249;52.468;13.776;2023-06-10T13:29:36;9.13;;;5.10;;
22166;SDS011;11249;52.468;13.776;2023-06-10T13:32:03;8.30;;;5.13;;
22166;SDS011;11249;52.468;13.776;2023-06-10T13:34:30;8.05;;;4.97;;
22166;SDS011;11249;52.468;13.776;2023-06-10T13:36:57;9.63;;;5.80;;
22166;SDS011;11249;52.468;13.776;2023-06-10T13:39:24;6.40;;;5.40;;
22166;SDS011;11249;52.468;13.776;2023-06-10T13:41:51;13.75;;;5.70;;
22166;SDS011;11249;52.468;13.776;2023-06-10T13:44:18;7.43;;;5.25;;
22166;SDS011;11249;52.468;13.776;2023-06-10T13:46:44;7.35;;;5.40;;
22166;SDS011;11249;52.468;13.776;2023-06-10T13:49:15;9.57;;;5.53;;
22166;SDS011;11249;52.468;13.776;2023-06-10T13:51:42;8.15;;;5.38;;
22166;SDS011;11249;52.468;13.776;2023-06-10T13:54:08;7.90;;;5.80;;
22166;SDS011;11249;52.468;13.776;2023-06-10T13:56:35;6.35;;;4.85;;
22166;SDS011;11249;52.468;13.776;2023-06-10T13:59:05;5.43;;;4.93;;
22166;SDS011;11249;52.468;13.776;2023-06-10T14:01:31;6.60;;;5.28;;
22166;SDS011;11249;52.468;13.776;2023-06-10T14:03:58;7.25;;;4.95;;
22166;SDS011;11249;52.468;13.776;2023-06-10T14:06:25;9.30;;;4.72;;
22166;SDS011;11249;52.468;13.776;2023-06-10T14:08:52;6.57;;;4.70;;
22166;SDS011;11249;52.468;13.776;2023-06-10T14:11:20;10.32;;;4.90;;
22166;SDS011;11249;52.468;13.776;2023-06-10T14:13:47;8.50;;;5.18;;
22166;SDS011;11249;52.468;13.776;2023-06-10T14:16:14;8.88;;;5.22;;
22166;SDS011;11249;52.468;13.776;2023-06-10T14:18:41;9.50;;;5.13;;
22166;SDS011;11249;52.468;13.776;2023-06-10T14:21:07;8.27;;;5.35;;
22166;SDS011;11249;52.468;13.776;2023-06-10T14:23:34;6.10;;;5.50;;
22166;SDS011;11249;52.468;13.776;2023-06-10T14:26:01;10.15;;;5.10;;
22166;SDS011;11249;52.468;13.776;2023-06-10T14:28:29;9.32;;;5.28;;
22166;SDS011;11249;52.468;13.776;2023-06-10T14:30:56;8.27;;;5.68;;
22166;SDS011;11249;52.468;13.776;2023-06-10T14:33:24;8.88;;;5.63;;
22166;SDS011;11249;52.468;13.776;2023-06-10T14:35:50;9.75;;;4.97;;
22166;SDS011;11249;52.468;13.776;2023-06-10T14:38:17;10.52;;;5.47;;
22166;SDS011;11249;52.468;13.776;2023-06-10T14:40:44;10.60;;;5.43;;
22166;SDS011;11249;52.468;13.776;2023-06-10T14:43:11;6.18;;;4.97;;
22166;SDS011;11249;52.468;13.776;2023-06-10T14:45:38;9.20;;;5.05;;
22166;SDS011;11249;52.468;13.776;2023-06-10T14:48:06;7.53;;;4.90;;
22166;SDS011;11249;52.468;13.776;2023-06-10T14:50:37;8.38;;;5.95;;
22166;SDS011;11249;52.468;13.776;2023-06-10T14:53:04;6.85;;;5.65;;
22166;SDS011;11249;52.468;13.776;2023-06-10T14:55:31;9.57;;;4.93;;
22166;SDS011;11249;52.468;13.776;2023-06-10T14:57:58;8.65;;;5.30;;
22166;SDS011;11249;52.468;13.776;2023-06-10T15:00:24;9.13;;;4.88;;
22166;SDS011;11249;52.468;13.776;2023-06-10T15:02:51;6.70;;;4.97;;
22166;SDS011;11249;52.468;13.776;2023-06-10T15:05:19;9.65;;;5.57;;